Amba, Kentucky
Current Conditions -  °F | °C
As of 12:15 PM on Friday 31 Oct 2014 (Local Time) from KPBX Reporting Station
Light Rain Light Rain  
Wind Chill: 44°   Ceiling: 3400
Heat Index: 44°   Visibility: 10mi
Dew Point: 39°   Wind: 3mph
Humidity: 82%   Direction: 310°NW
Pressure: 29.94"   Gusts: NA
Location:  37.4843°N, 82.6492°W
Report Text: KPBX 311615Z AUTO 31003KT 10SM -RA BKN034 OVC040 07/04 A2994 RMK AO2 T00670039
Loading
Personal Weather Stations






























Interactive Weather Map
Tropical Storm Tracking
New forecast layout! Learn more

10-Day Weather Forecast

Advertisements
Track Severe Weather on mobile